Time;durP1;ratioP1;P1;durP2;ratioP2;P2;SDS_P1;SDS_P2;PMS_P1;PMS_P2;Temp;Humidity;BMP_temperature;BMP_pressure;BME280_temperature;BME280_humidity;BME280_pressure;Samples;Min_cycle;Max_cycle;Signal;HPM_P1;HPM_P2
2022/11/20 00:02:25;;;;;;;9.80;8.63;;;;;;;-145.14;100.00;70583.66;5038081;28;20231;-86
2022/11/20 00:04:50;;;;;;;10.53;8.70;;;;;;;-145.14;100.00;70583.66;5038765;28;20184;-85
2022/11/20 00:07:15;;;;;;;9.87;8.03;;;;;;;-145.14;100.00;70583.66;5021679;28;20198;-87
2022/11/20 00:09:41;;;;;;;8.50;6.53;;;;;;;-145.14;100.00;70583.66;5037717;28;20295;-86
2022/11/20 00:12:07;;;;;;;8.60;5.60;;;;;;;-145.14;100.00;70583.66;5042562;28;20187;-86
2022/11/20 00:14:32;;;;;;;8.90;6.83;;;;;;;-145.14;100.00;70583.66;5040000;28;20183;-86
2022/11/20 00:16:58;;;;;;;8.40;6.97;;;;;;;-145.14;100.00;70583.66;5041891;28;20230;-87
2022/11/20 00:19:23;;;;;;;9.17;7.20;;;;;;;-145.14;100.00;70583.66;5026748;28;20188;-87
2022/11/20 00:21:51;;;;;;;7.20;6.40;;;;;;;-145.14;100.00;70583.66;5040860;28;20267;-86
2022/11/20 00:24:16;;;;;;;6.57;5.90;;;;;;;-145.14;100.00;70583.66;5034858;28;20243;-87
2022/11/20 00:26:42;;;;;;;10.73;7.57;;;;;;;-145.14;100.00;70583.66;5039073;28;20465;-86
2022/11/20 00:29:10;;;;;;;9.30;6.33;;;;;;;-145.14;100.00;70583.66;5031781;28;20269;-87
2022/11/20 00:31:35;;;;;;;6.83;6.00;;;;;;;-145.14;100.00;70583.66;5029141;28;20205;-87
2022/11/20 00:34:01;;;;;;;7.70;5.70;;;;;;;-145.14;100.00;70583.66;5035349;28;20465;-87
2022/11/20 00:36:28;;;;;;;9.73;6.43;;;;;;;-145.14;100.00;70583.66;5037232;28;20790;-87
2022/11/20 00:38:56;;;;;;;6.77;5.40;;;;;;;-145.14;100.00;70583.66;5041832;28;20187;-87
2022/11/20 00:41:22;;;;;;;6.80;5.60;;;;;;;-145.14;100.00;70583.66;5039738;28;20474;-87
2022/11/20 00:43:48;;;;;;;6.73;5.03;;;;;;;-145.14;100.00;70583.66;5038836;28;20479;-85
2022/11/20 00:46:16;;;;;;;7.37;5.83;;;;;;;-145.14;100.00;70583.66;5041272;28;20504;-87
2022/11/20 00:48:42;;;;;;;6.50;5.03;;;;;;;-145.14;100.00;70583.66;5037264;28;20474;-87
2022/11/20 00:51:08;;;;;;;8.00;5.57;;;;;;;-145.14;100.00;70583.66;5040547;28;20875;-87
2022/11/20 00:53:34;;;;;;;8.50;5.50;;;;;;;-145.14;100.00;70583.66;5039702;28;20441;-86
2022/11/20 00:56:02;;;;;;;6.13;4.87;;;;;;;-145.14;100.00;70583.66;5035201;28;20207;-87
2022/11/20 00:58:33;;;;;;;6.97;5.73;;;;;;;-145.14;100.00;70583.66;5035043;28;20180;-87
2022/11/20 01:01:08;;;;;;;5.53;4.80;;;;;;;-145.14;100.00;70583.66;5034000;28;20443;-88
2022/11/20 01:03:35;;;;;;;6.33;5.10;;;;;;;-145.14;100.00;70583.66;5030684;28;20755;-85
2022/11/20 01:06:19;;;;;;;6.00;4.90;;;;;;;-145.14;100.00;70583.66;5040158;28;20553;-86
2022/11/20 01:08:45;;;;;;;5.10;4.60;;;;;;;-145.14;100.00;70583.66;5040114;28;20466;-88
2022/11/20 01:11:14;;;;;;;5.20;4.40;;;;;;;-145.14;100.00;70583.66;5037518;28;20505;-84
2022/11/20 01:13:41;;;;;;;7.30;4.60;;;;;;;-145.14;100.00;70583.66;5040459;28;20448;-86
2022/11/20 01:16:13;;;;;;;4.80;4.10;;;;;;;-145.14;100.00;70583.66;5058053;28;20473;-86
2022/11/20 01:18:40;;;;;;;4.97;3.97;;;;;;;-145.14;100.00;70583.66;5041055;28;20440;-86
2022/11/20 01:21:19;;;;;;;5.00;4.17;;;;;;;-145.14;100.00;70583.66;5036329;28;20446;-87
2022/11/20 01:23:45;;;;;;;6.07;4.50;;;;;;;-145.14;100.00;70583.66;5037331;28;20516;-86
2022/11/20 01:26:13;;;;;;;6.07;4.37;;;;;;;-145.14;100.00;70583.66;5036972;28;20466;-87
2022/11/20 01:28:40;;;;;;;5.43;4.13;;;;;;;-145.14;100.00;70583.66;5034516;28;20986;-87
2022/11/20 01:31:13;;;;;;;4.80;3.90;;;;;;;-145.14;100.00;70583.66;5034687;28;20446;-87
2022/11/20 01:33:40;;;;;;;6.20;3.97;;;;;;;-145.14;100.00;70583.66;5035643;28;20453;-87
2022/11/20 01:36:07;;;;;;;5.57;4.03;;;;;;;-145.14;100.00;70583.66;5036825;28;20536;-87
2022/11/20 01:38:32;;;;;;;6.80;5.37;;;;;;;-145.14;100.00;70583.66;5040149;28;20990;-86
2022/11/20 01:40:58;;;;;;;5.50;4.63;;;;;;;-145.14;100.00;70583.66;5044904;28;20541;-86
2022/11/20 01:43:24;;;;;;;8.23;5.60;;;;;;;-145.14;100.00;70583.66;5044553;28;20681;-88
2022/11/20 01:46:04;;;;;;;5.30;4.80;;;;;;;-145.14;100.00;70583.66;5046024;28;20238;-87
2022/11/20 01:48:53;;;;;;;7.13;5.20;;;;;;;-145.14;100.00;70583.66;5037067;28;20523;-88
2022/11/20 01:51:33;;;;;;;7.20;5.50;;;;;;;-145.14;100.00;70583.66;5045313;28;20560;-86
2022/11/20 01:54:02;;;;;;;7.00;5.33;;;;;;;-145.14;100.00;70583.66;5041313;28;20446;-88
2022/11/20 01:56:30;;;;;;;7.03;5.73;;;;;;;-145.14;100.00;70583.66;5043336;28;20462;-87
2022/11/20 01:59:00;;;;;;;7.00;5.57;;;;;;;-145.14;100.00;70583.66;5039728;28;20529;-86
2022/11/20 02:01:26;;;;;;;9.50;6.77;;;;;;;-145.14;100.00;70583.66;5044196;28;20702;-86
2022/11/20 02:03:53;;;;;;;6.97;6.10;;;;;;;-145.14;100.00;70583.66;5045076;28;20488;-87
2022/11/20 02:06:31;;;;;;;7.73;5.47;;;;;;;-145.14;100.00;70583.66;5038887;28;20667;-88
2022/11/20 02:08:56;;;;;;;9.00;6.40;;;;;;;-145.14;100.00;70583.66;5052228;28;20809;-87
2022/11/20 02:11:22;;;;;;;7.60;6.30;;;;;;;-145.14;100.00;70583.66;5038189;28;20942;-88
2022/11/20 02:13:48;;;;;;;8.10;6.00;;;;;;;-145.14;100.00;70583.66;5036174;28;20180;-87
2022/11/20 02:16:22;;;;;;;8.33;5.90;;;;;;;-145.14;100.00;70583.66;5035490;28;20322;-88
2022/11/20 02:18:48;;;;;;;7.50;6.07;;;;;;;-145.14;100.00;70583.66;5038549;28;20453;-88
2022/11/20 02:21:21;;;;;;;6.80;6.10;;;;;;;-145.14;100.00;70583.66;5033012;28;20456;-87
2022/11/20 02:24:09;;;;;;;7.97;5.80;;;;;;;-145.14;100.00;70583.66;5041558;28;20923;-87
2022/11/20 02:26:42;;;;;;;7.00;6.20;;;;;;;-145.14;100.00;70583.66;5033846;28;20803;-87
2022/11/20 02:29:08;;;;;;;9.30;5.27;;;;;;;-145.14;100.00;70583.66;5037119;28;20955;-85
2022/11/20 02:31:41;;;;;;;7.40;5.90;;;;;;;-145.14;100.00;70583.66;5035228;28;20511;-87
2022/11/20 02:34:07;;;;;;;8.33;6.80;;;;;;;-145.14;100.00;70583.66;5034175;28;20204;-87
2022/11/20 02:36:35;;;;;;;9.70;6.53;;;;;;;-145.14;100.00;70583.66;5039256;28;20457;-86
2022/11/20 02:39:01;;;;;;;7.73;6.13;;;;;;;-145.14;100.00;70583.66;5063484;28;20441;-87
2022/11/20 02:41:35;;;;;;;6.93;6.23;;;;;;;-145.14;100.00;70583.66;5044660;28;20426;-88
2022/11/20 02:44:01;;;;;;;7.13;6.43;;;;;;;-145.14;100.00;70583.66;5044101;28;20972;-88
2022/11/20 02:46:27;;;;;;;8.20;6.60;;;;;;;-145.14;100.00;70583.66;5041467;28;20465;-85
2022/11/20 02:48:52;;;;;;;7.90;6.57;;;;;;;-145.14;100.00;70583.66;5041336;28;20659;-86
2022/11/20 02:51:18;;;;;;;5.80;5.20;;;;;;;-145.14;100.00;70583.66;5044851;28;20930;-87
2022/11/20 02:53:43;;;;;;;7.97;6.33;;;;;;;-145.14;100.00;70583.66;5044073;28;20231;-88
2022/11/20 02:56:09;;;;;;;7.73;5.30;;;;;;;-145.14;100.00;70583.66;5042551;28;20298;-88
2022/11/20 02:58:35;;;;;;;8.60;6.27;;;;;;;-145.14;100.00;70583.66;5040064;28;20184;-87
2022/11/20 03:01:00;;;;;;;11.43;5.70;;;;;;;-145.14;100.00;70583.66;5043877;28;20199;-87
2022/11/20 03:03:26;;;;;;;9.83;6.50;;;;;;;-145.14;100.00;70583.66;5041889;28;20339;-87
2022/11/20 03:05:51;;;;;;;9.20;6.50;;;;;;;-145.14;100.00;70583.66;5040815;28;20211;-88
2022/11/20 03:08:17;;;;;;;6.40;5.17;;;;;;;-145.14;100.00;70583.66;5040261;28;20215;-87
2022/11/20 03:10:42;;;;;;;9.07;6.30;;;;;;;-145.14;100.00;70583.66;5039613;28;20211;-87
2022/11/20 03:13:08;;;;;;;8.40;5.80;;;;;;;-145.14;100.00;70583.66;5045945;28;20660;-88
2022/11/20 03:15:36;;;;;;;8.77;6.70;;;;;;;-145.14;100.00;70583.66;5037505;28;20213;-87
2022/11/20 03:18:01;;;;;;;8.70;5.67;;;;;;;-145.14;100.00;70583.66;5041659;28;20202;-87
2022/11/20 03:20:27;;;;;;;7.20;5.90;;;;;;;-145.14;100.00;70583.66;5040545;28;20438;-87
2022/11/20 03:22:54;;;;;;;6.27;5.57;;;;;;;-145.14;100.00;70583.66;5038927;28;20572;-87
2022/11/20 03:25:20;;;;;;;6.57;4.97;;;;;;;-145.14;100.00;70583.66;5032093;28;20292;-86
2022/11/20 03:27:45;;;;;;;7.20;5.20;;;;;;;-145.14;100.00;70583.66;5035127;28;20450;-87
2022/11/20 03:30:11;;;;;;;5.87;5.20;;;;;;;-145.14;100.00;70583.66;5035971;28;20233;-86
2022/11/20 03:32:37;;;;;;;4.33;3.83;;;;;;;-145.14;100.00;70583.66;5034427;28;20732;-87
2022/11/20 03:35:02;;;;;;;6.23;5.13;;;;;;;-145.14;100.00;70583.66;5039482;28;20523;-86
2022/11/20 03:37:28;;;;;;;5.60;4.37;;;;;;;-145.14;100.00;70583.66;5039038;28;20184;-88
2022/11/20 03:39:53;;;;;;;5.67;4.67;;;;;;;-145.14;100.00;70583.66;5041697;28;20199;-88
2022/11/20 03:45:04;;;;;;;4.70;4.20;;;;;;;-145.14;100.00;70583.66;5045360;28;20631;-88
2022/11/20 03:47:30;;;;;;;5.60;4.10;;;;;;;-145.14;100.00;70583.66;5040991;28;20906;-87
2022/11/20 03:49:55;;;;;;;4.93;4.40;;;;;;;-145.14;100.00;70583.66;5038484;28;21043;-89
2022/11/20 03:52:21;;;;;;;6.10;5.20;;;;;;;-145.14;100.00;70583.66;5044442;28;20579;-88
2022/11/20 03:54:46;;;;;;;5.00;4.50;;;;;;;-145.14;100.00;70583.66;5037469;28;20187;-86
2022/11/20 03:57:12;;;;;;;4.73;4.23;;;;;;;-145.14;100.00;70583.66;5044187;28;20505;-86
2022/11/20 03:59:37;;;;;;;6.90;5.20;;;;;;;-145.14;100.00;70583.66;5037093;28;20183;-87
2022/11/20 04:02:03;;;;;;;4.47;3.87;;;;;;;-145.14;100.00;70583.66;5035129;28;20187;-86
2022/11/20 04:04:29;;;;;;;4.67;4.17;;;;;;;-145.14;100.00;70583.66;5041807;28;20231;-85
2022/11/20 04:06:54;;;;;;;5.00;4.07;;;;;;;-145.14;100.00;70583.66;5040162;28;20203;-87
2022/11/20 04:09:20;;;;;;;5.27;4.10;;;;;;;-145.14;100.00;70583.66;5037298;28;20640;-87
2022/11/20 04:11:46;;;;;;;8.93;4.50;;;;;;;-145.14;100.00;70583.66;5036337;28;20229;-86
2022/11/20 04:14:14;;;;;;;4.83;4.33;;;;;;;-145.14;100.00;70583.66;5040336;28;20190;-87
2022/11/20 04:16:39;;;;;;;6.50;3.90;;;;;;;-145.14;100.00;70583.66;5037397;28;20207;-87
2022/11/20 04:19:09;;;;;;;4.67;3.70;;;;;;;-145.14;100.00;70583.66;5032467;28;20987;-86
2022/11/20 04:21:36;;;;;;;4.53;3.33;;;;;;;-145.14;100.00;70583.66;5050431;28;20497;-87
2022/11/20 04:24:02;;;;;;;5.00;3.30;;;;;;;-145.14;100.00;70583.66;5040910;28;20438;-86
2022/11/20 04:26:29;;;;;;;4.20;3.80;;;;;;;-145.14;100.00;70583.66;5035711;28;20553;-87
2022/11/20 04:28:56;;;;;;;3.63;3.23;;;;;;;-145.14;100.00;70583.66;5035414;28;20474;-88
2022/11/20 04:31:28;;;;;;;4.40;4.00;;;;;;;-145.14;100.00;70583.66;5033703;28;20445;-87
2022/11/20 04:33:54;;;;;;;4.00;3.60;;;;;;;-145.14;100.00;70583.66;5044427;28;20438;-89
2022/11/20 04:36:22;;;;;;;8.13;4.03;;;;;;;-145.14;100.00;70583.66;5034750;28;20461;-84
2022/11/20 04:38:51;;;;;;;4.60;4.00;;;;;;;-145.14;100.00;70583.66;5035332;28;20462;-88
2022/11/20 04:41:19;;;;;;;4.07;3.67;;;;;;;-145.14;100.00;70583.66;5034677;28;20508;-87
2022/11/20 04:43:49;;;;;;;4.97;3.70;;;;;;;-145.14;100.00;70583.66;5040577;28;20967;-87
2022/11/20 04:46:16;;;;;;;5.50;4.00;;;;;;;-145.14;100.00;70583.66;5040960;28;21065;-87
2022/11/20 04:48:42;;;;;;;4.33;3.93;;;;;;;-145.14;100.00;70583.66;5037685;28;20561;-89
2022/11/20 04:51:07;;;;;;;5.57;4.23;;;;;;;-145.14;100.00;70583.66;5046779;22;20532;-74
2022/11/20 04:53:33;;;;;;;4.53;4.13;;;;;;;-145.14;100.00;70583.66;5031113;28;20205;-74
2022/11/20 04:56:07;;;;;;;4.73;4.23;;;;;;;-145.14;100.00;70583.66;5034505;28;20630;-74
2022/11/20 04:58:35;;;;;;;3.77;3.37;;;;;;;-145.14;100.00;70583.66;5036833;28;20176;-74
2022/11/20 05:01:06;;;;;;;6.17;4.00;;;;;;;-145.14;100.00;70583.66;5034801;28;20870;-74
2022/11/20 05:03:32;;;;;;;5.97;4.37;;;;;;;-145.14;100.00;70583.66;5020845;28;20438;-73
2022/11/20 05:06:02;;;;;;;4.60;4.20;;;;;;;-145.14;100.00;70583.66;5039427;28;20444;-74
2022/11/20 05:08:28;;;;;;;5.17;4.37;;;;;;;-145.14;100.00;70583.66;5021463;28;20207;-74
2022/11/20 05:10:58;;;;;;;5.73;4.30;;;;;;;-145.14;100.00;70583.66;5039839;28;20464;-74
2022/11/20 05:13:24;;;;;;;4.67;4.00;;;;;;;-145.14;100.00;70583.66;5036833;28;20939;-74
2022/11/20 05:15:52;;;;;;;5.20;4.27;;;;;;;-145.14;100.00;70583.66;5033865;28;20444;-75
2022/11/20 05:18:17;;;;;;;5.10;4.60;;;;;;;-145.14;100.00;70583.66;5031787;28;20290;-74
2022/11/20 05:20:43;;;;;;;5.07;4.10;;;;;;;-145.14;100.00;70583.66;5040538;28;20544;-74
2022/11/20 05:23:10;;;;;;;5.17;4.00;;;;;;;-145.14;100.00;70583.66;5042916;28;20187;-74
2022/11/20 05:25:36;;;;;;;6.20;4.30;;;;;;;-145.14;100.00;70583.66;5015302;28;20212;-75
2022/11/20 05:28:01;;;;;;;5.07;4.37;;;;;;;-145.14;100.00;70583.66;5032570;28;20435;-73
2022/11/20 05:30:27;;;;;;;4.57;4.00;;;;;;;-145.14;100.00;70583.66;5032364;28;20222;-75
2022/11/20 05:32:52;;;;;;;4.67;4.10;;;;;;;-145.14;100.00;70583.66;5039697;28;20183;-74
2022/11/20 05:35:18;;;;;;;4.80;4.27;;;;;;;-145.14;100.00;70583.66;5024162;28;20656;-74
2022/11/20 05:37:43;;;;;;;4.53;3.90;;;;;;;-145.14;100.00;70583.66;5018911;28;20312;-74
2022/11/20 05:40:10;;;;;;;4.13;3.73;;;;;;;-145.14;100.00;70583.66;5026253;28;20645;-74
2022/11/20 05:42:38;;;;;;;4.80;4.30;;;;;;;-145.14;100.00;70583.66;5030633;28;20191;-74
2022/11/20 05:45:04;;;;;;;5.60;4.20;;;;;;;-145.14;100.00;70583.66;5034316;28;20446;-74
2022/11/20 05:47:34;;;;;;;5.87;4.67;;;;;;;-145.14;100.00;70583.66;5037823;28;20544;-74
2022/11/20 05:49:59;;;;;;;5.70;4.27;;;;;;;-145.14;100.00;70583.66;5034843;28;20471;-74
2022/11/20 05:52:28;;;;;;;4.53;4.07;;;;;;;-145.14;100.00;70583.66;5035214;28;20514;-74
2022/11/20 05:54:53;;;;;;;3.93;2.80;;;;;;;-145.14;100.00;70583.66;5019598;28;20184;-74
2022/11/20 05:57:19;;;;;;;5.30;3.20;;;;;;;-145.14;100.00;70583.66;5013007;28;20446;-74
2022/11/20 05:59:49;;;;;;;4.10;3.20;;;;;;;-145.14;100.00;70583.66;5030835;28;20192;-75
2022/11/20 06:02:14;;;;;;;4.90;3.30;;;;;;;-145.14;100.00;70583.66;5032696;28;20303;-74
2022/11/20 06:04:40;;;;;;;3.30;3.00;;;;;;;-145.14;100.00;70583.66;5037079;28;20446;-74
2022/11/20 06:07:08;;;;;;;3.47;3.17;;;;;;;-145.14;100.00;70583.66;5016040;28;20223;-74
2022/11/20 06:09:34;;;;;;;4.43;4.03;;;;;;;-145.14;100.00;70583.66;5033790;28;20218;-74
2022/11/20 06:11:59;;;;;;;4.93;4.27;;;;;;;-145.14;100.00;70583.66;5015248;28;20466;-74
2022/11/20 06:14:25;;;;;;;4.20;3.80;;;;;;;-145.14;100.00;70583.66;5037800;28;20641;-74
2022/11/20 06:16:50;;;;;;;4.27;3.70;;;;;;;-145.14;100.00;70583.66;5036706;28;20195;-75
2022/11/20 06:19:16;;;;;;;3.97;3.60;;;;;;;-145.14;100.00;70583.66;5034875;28;20644;-74
2022/11/20 06:21:41;;;;;;;4.00;3.60;;;;;;;-145.14;100.00;70583.66;5014450;28;20704;-75
2022/11/20 06:24:10;;;;;;;4.33;3.93;;;;;;;-145.14;100.00;70583.66;5037621;28;20199;-75
2022/11/20 06:26:35;;;;;;;8.17;4.13;;;;;;;-145.14;100.00;70583.66;5016904;28;20361;-75
2022/11/20 06:29:01;;;;;;;5.27;3.70;;;;;;;-145.14;100.00;70583.66;5037346;28;20974;-74
2022/11/20 06:31:26;;;;;;;3.80;3.43;;;;;;;-145.14;100.00;70583.66;5013549;28;20211;-75
2022/11/20 06:33:52;;;;;;;4.60;3.90;;;;;;;-145.14;100.00;70583.66;5015109;28;20664;-75
2022/11/20 06:36:20;;;;;;;4.90;3.97;;;;;;;-145.14;100.00;70583.66;5032051;28;20648;-75
2022/11/20 06:38:46;;;;;;;3.73;3.30;;;;;;;-145.14;100.00;70583.66;5033439;28;20442;-75
2022/11/20 06:41:17;;;;;;;4.87;3.50;;;;;;;-145.14;100.00;70583.66;5030286;28;20494;-75
2022/11/20 06:43:43;;;;;;;6.60;3.60;;;;;;;-145.14;100.00;70583.66;5027611;28;20211;-75
2022/11/20 06:46:11;;;;;;;3.57;3.17;;;;;;;-145.14;100.00;70583.66;5045026;28;20460;-74
2022/11/20 06:48:36;;;;;;;3.80;3.30;;;;;;;-145.14;100.00;70583.66;5043050;28;20527;-74
2022/11/20 06:51:07;;;;;;;4.07;3.40;;;;;;;-145.14;100.00;70583.66;5024094;28;20881;-75
2022/11/20 06:53:33;;;;;;;3.90;3.30;;;;;;;-145.14;100.00;70583.66;5026392;28;20211;-74
2022/11/20 06:55:59;;;;;;;5.63;4.43;;;;;;;-145.14;100.00;70583.66;5022908;28;20442;-75
2022/11/20 06:58:30;;;;;;;3.80;3.50;;;;;;;-145.14;100.00;70583.66;5018773;28;20438;-74
2022/11/20 07:01:19;;;;;;;3.83;3.43;;;;;;;-145.14;100.00;70583.66;5022521;28;20823;-75
2022/11/20 07:03:45;;;;;;;3.73;3.43;;;;;;;-145.14;100.00;70583.66;5039562;28;20504;-74
2022/11/20 07:06:10;;;;;;;4.07;3.60;;;;;;;-145.14;100.00;70583.66;5018557;28;20528;-75
2022/11/20 07:08:36;;;;;;;4.90;3.57;;;;;;;-145.14;100.00;70583.66;5017516;28;20211;-75
2022/11/20 07:11:05;;;;;;;3.43;3.13;;;;;;;-145.14;100.00;70583.66;5036827;28;20783;-74
2022/11/20 07:13:31;;;;;;;4.53;3.80;;;;;;;-145.14;100.00;70583.66;5042376;28;20596;-75
2022/11/20 07:16:01;;;;;;;4.77;3.87;;;;;;;-145.14;100.00;70583.66;5039213;28;20978;-75
2022/11/20 07:18:26;;;;;;;4.30;3.90;;;;;;;-145.14;100.00;70583.66;5037648;28;20766;-75
2022/11/20 07:20:54;;;;;;;4.07;3.20;;;;;;;-145.14;100.00;70583.66;5025052;28;20592;-75
2022/11/20 07:23:20;;;;;;;4.73;4.33;;;;;;;-145.14;100.00;70583.66;5035053;28;20227;-75
2022/11/20 07:25:47;;;;;;;4.80;4.20;;;;;;;-145.14;100.00;70583.66;5031407;28;20442;-75
2022/11/20 07:28:13;;;;;;;4.40;4.00;;;;;;;-145.14;100.00;70583.66;5015053;28;20180;-75
2022/11/20 07:30:39;;;;;;;4.50;3.90;;;;;;;-145.14;100.00;70583.66;5012259;28;20472;-74
2022/11/20 07:33:05;;;;;;;8.00;5.53;;;;;;;-145.14;100.00;70583.66;5031590;28;20187;-75
2022/11/20 07:35:30;;;;;;;5.60;5.00;;;;;;;-145.14;100.00;70583.66;5020522;28;20218;-75
2022/11/20 07:37:55;;;;;;;6.53;5.50;;;;;;;-145.14;100.00;70583.66;5035460;28;20191;-75
2022/11/20 07:40:21;;;;;;;6.80;5.20;;;;;;;-145.14;100.00;70583.66;5025881;28;20215;-75
2022/11/20 07:42:48;;;;;;;6.07;5.37;;;;;;;-145.14;100.00;70583.66;5036583;28;20194;-75
2022/11/20 07:45:14;;;;;;;5.37;4.87;;;;;;;-145.14;100.00;70583.66;5020610;28;20194;-75
2022/11/20 07:47:39;;;;;;;6.40;5.77;;;;;;;-145.14;100.00;70583.66;5014578;28;20873;-75
2022/11/20 07:50:05;;;;;;;7.67;6.57;;;;;;;-145.14;100.00;70583.66;5036430;28;20269;-75
2022/11/20 07:52:31;;;;;;;6.73;5.47;;;;;;;-145.14;100.00;70583.66;5020901;28;20274;-75
2022/11/20 07:54:56;;;;;;;6.70;5.73;;;;;;;-145.14;100.00;70583.66;5035656;28;20446;-75
2022/11/20 07:57:22;;;;;;;6.70;5.67;;;;;;;-145.14;100.00;70583.66;5015312;28;20207;-75
2022/11/20 07:59:47;;;;;;;8.37;6.20;;;;;;;-145.14;100.00;70583.66;5015314;28;20699;-75
2022/11/20 08:02:13;;;;;;;6.93;5.97;;;;;;;-145.14;100.00;70583.66;5028890;28;20240;-75
2022/11/20 08:04:38;;;;;;;7.47;6.43;;;;;;;-145.14;100.00;70583.66;5022047;28;20710;-75
2022/11/20 08:07:04;;;;;;;8.37;6.53;;;;;;;-145.14;100.00;70583.66;5040723;28;20947;-75
2022/11/20 08:09:32;;;;;;;6.53;5.90;;;;;;;-145.14;100.00;70583.66;5035179;28;20254;-75
2022/11/20 08:14:42;;;;;;;7.40;6.13;;;;;;;-145.14;100.00;70583.66;5043162;28;20442;-75
2022/11/20 08:17:07;;;;;;;6.60;5.90;;;;;;;-145.14;100.00;70583.66;5042351;28;20938;-75
2022/11/20 08:19:35;;;;;;;6.67;6.03;;;;;;;-145.14;100.00;70583.66;5041138;28;20207;-75
2022/11/20 08:22:01;;;;;;;8.03;6.43;;;;;;;-145.14;100.00;70583.66;5034641;28;20651;-75
2022/11/20 08:24:26;;;;;;;6.80;5.97;;;;;;;-145.14;100.00;70583.66;5039805;28;20540;-75
2022/11/20 08:26:52;;;;;;;7.47;5.27;;;;;;;-145.14;100.00;70583.66;5034130;28;20233;-76
2022/11/20 08:29:18;;;;;;;7.20;5.70;;;;;;;-145.14;100.00;70583.66;5029713;28;20207;-76
2022/11/20 08:31:44;;;;;;;8.53;6.33;;;;;;;-145.14;100.00;70583.66;5031544;28;20286;-76
2022/11/20 08:34:09;;;;;;;6.97;6.27;;;;;;;-145.14;100.00;70583.66;5021215;28;20446;-75
2022/11/20 08:36:35;;;;;;;7.93;6.50;;;;;;;-145.14;100.00;70583.66;5022673;28;20284;-75
2022/11/20 08:39:01;;;;;;;11.43;6.23;;;;;;;-145.14;100.00;70583.66;5022690;28;20330;-75
2022/11/20 08:41:26;;;;;;;7.03;6.27;;;;;;;-145.14;100.00;70583.66;5033171;28;20210;-75
2022/11/20 08:44:07;;;;;;;8.40;6.80;;;;;;;-145.14;100.00;70583.66;5019464;28;20450;-75
2022/11/20 08:46:39;;;;;;;7.13;5.90;;;;;;;-145.14;100.00;70583.66;5025536;28;20616;-75
2022/11/20 08:49:10;;;;;;;7.57;6.20;;;;;;;-145.14;100.00;70583.66;5014824;28;20557;-76
2022/11/20 08:51:37;;;;;;;6.87;5.80;;;;;;;-145.14;100.00;70583.66;5028587;28;21270;-75
2022/11/20 08:54:04;;;;;;;7.00;6.30;;;;;;;-145.14;100.00;70583.66;5036723;28;21710;-75
2022/11/20 08:56:39;;;;;;;;;;;;;;;;;;;;;
2022/11/20 08:59:06;;;;;;;7.90;6.87;;;;;;;-145.14;100.00;70583.66;5032267;28;20445;-75
2022/11/20 09:01:34;;;;;;;9.47;7.00;;;;;;;-145.14;100.00;70583.66;5032023;28;20471;-75
2022/11/20 09:04:00;;;;;;;7.50;6.50;;;;;;;-145.14;100.00;70583.66;5016399;28;20216;-75
2022/11/20 09:06:28;;;;;;;7.87;6.77;;;;;;;-145.14;100.00;70583.66;5019330;28;21497;-75
2022/11/20 09:08:54;;;;;;;7.33;6.27;;;;;;;-145.14;100.00;70583.66;5033561;28;21781;-75
2022/11/20 09:11:20;;;;;;;10.30;7.17;;;;;;;-145.14;100.00;70583.66;5033150;28;20957;-75
2022/11/20 09:13:45;;;;;;;7.70;6.43;;;;;;;-145.14;100.00;70583.66;5042464;28;20445;-74
2022/11/20 09:16:13;;;;;;;7.33;6.40;;;;;;;-145.14;100.00;70583.66;5008175;28;20192;-75
2022/11/20 09:18:40;;;;;;;7.03;6.17;;;;;;;-145.14;100.00;70583.66;5014273;28;20174;-73
2022/11/20 09:21:12;;;;;;;8.90;7.47;;;;;;;-145.14;100.00;70583.66;5016967;28;20459;-75
2022/11/20 09:23:41;;;;;;;6.70;5.97;;;;;;;-145.14;100.00;70583.66;5018025;28;20807;-75
2022/11/20 09:26:13;;;;;;;6.50;5.80;;;;;;;-145.14;100.00;70583.66;5034691;28;20780;-75
2022/11/20 09:28:40;;;;;;;7.20;5.67;;;;;;;-145.14;100.00;70583.66;5038312;28;20461;-76
2022/11/20 09:31:15;;;;;;;6.33;5.73;;;;;;;-145.14;100.00;70583.66;5040303;28;20469;-78
2022/11/20 09:33:41;;;;;;;8.43;5.87;;;;;;;-145.14;100.00;70583.66;5023318;28;20950;-79
2022/11/20 09:36:06;;;;;;;7.07;6.00;;;;;;;-145.14;100.00;70583.66;5042464;28;20495;-77
2022/11/20 09:38:34;;;;;;;7.33;6.30;;;;;;;-145.14;100.00;70583.66;5019855;28;20218;-75
2022/11/20 09:41:06;;;;;;;6.60;5.37;;;;;;;-145.14;100.00;70583.66;5025010;28;20619;-78
2022/11/20 09:44:05;;;;;;;5.80;4.80;;;;;;;-145.14;100.00;70583.66;5034264;28;20536;-79
2022/11/20 09:47:06;;;;;;;5.10;4.60;;;;;;;-145.14;100.00;70583.66;5041985;28;20937;-79
2022/11/20 09:50:04;;;;;;;5.30;4.27;;;;;;;-145.14;100.00;70583.66;5036452;28;20473;-77
2022/11/20 09:52:41;;;;;;;6.73;5.90;;;;;;;-145.14;100.00;70583.66;5040227;28;20450;-76
2022/11/20 09:55:11;;;;;;;12.93;5.70;;;;;;;-145.14;100.00;70583.66;5041553;28;20442;-78
2022/11/20 09:57:41;;;;;;;18.50;12.40;;;;;;;-145.14;100.00;70583.66;5043723;28;20445;-78
2022/11/20 10:00:12;;;;;;;12.83;8.60;;;;;;;-145.14;100.00;70583.66;5039812;28;20442;-77
2022/11/20 10:02:43;;;;;;;8.90;8.00;;;;;;;-145.14;100.00;70583.66;5039742;28;20434;-78
2022/11/20 10:05:24;;;;;;;8.00;4.80;;;;;;;-145.14;100.00;70583.66;5048538;28;20997;-78
2022/11/20 10:07:56;;;;;;;5.90;4.50;;;;;;;-145.14;100.00;70583.66;5042434;28;20520;-79
2022/11/20 10:10:47;;;;;;;4.90;4.03;;;;;;;-145.14;100.00;70583.66;5041925;28;20478;-77
2022/11/20 10:13:38;;;;;;;5.50;4.53;;;;;;;-145.14;100.00;70583.66;5038708;28;20525;-77
2022/11/20 10:16:29;;;;;;;5.00;4.43;;;;;;;-145.14;100.00;70583.66;5037614;28;20472;-78
2022/11/20 10:19:16;;;;;;;6.90;4.80;;;;;;;-145.14;100.00;70583.66;5042159;28;20503;-77
2022/11/20 10:21:59;;;;;;;6.30;4.60;;;;;;;-145.14;100.00;70583.66;5035860;28;20733;-79
2022/11/20 10:24:37;;;;;;;4.90;4.40;;;;;;;-145.14;100.00;70583.66;5043970;28;20430;-76
2022/11/20 10:27:19;;;;;;;6.60;5.27;;;;;;;-145.14;100.00;70583.66;5037078;28;20445;-74
2022/11/20 10:29:52;;;;;;;7.97;4.67;;;;;;;-145.14;100.00;70583.66;5017188;28;20527;-76
2022/11/20 10:32:25;;;;;;;4.67;4.07;;;;;;;-145.14;100.00;70583.66;5036104;28;20473;-77
2022/11/20 10:35:04;;;;;;;6.63;4.73;;;;;;;-145.14;100.00;70583.66;5017721;28;20878;-77
2022/11/20 10:37:32;;;;;;;4.33;3.93;;;;;;;-145.14;100.00;70583.66;5038109;28;20511;-77
2022/11/20 10:40:19;;;;;;;6.07;4.33;;;;;;;-145.14;100.00;70583.66;5034945;28;20721;-76
2022/11/20 10:42:50;;;;;;;8.63;5.80;;;;;;;-145.14;100.00;70583.66;5032699;28;20795;-73
2022/11/20 10:45:25;;;;;;;7.40;5.83;;;;;;;-145.14;100.00;70583.66;5024635;28;20437;-73
2022/11/20 10:48:09;;;;;;;5.30;4.60;;;;;;;-145.14;100.00;70583.66;5040470;28;20452;-74
2022/11/20 10:50:39;;;;;;;6.07;5.40;;;;;;;-145.14;100.00;70583.66;5038617;28;20560;-77
2022/11/20 10:53:31;;;;;;;6.60;5.87;;;;;;;-145.14;100.00;70583.66;5036127;28;20441;-75
2022/11/20 10:56:05;;;;;;;7.13;5.70;;;;;;;-145.14;100.00;70583.66;5034586;28;21265;-75
2022/11/20 10:58:49;;;;;;;6.70;5.80;;;;;;;-145.14;100.00;70583.66;5026939;28;20465;-76
2022/11/20 11:01:18;;;;;;;7.30;5.30;;;;;;;-145.14;100.00;70583.66;5018756;28;20457;-76
2022/11/20 11:03:44;;;;;;;5.40;4.90;;;;;;;-145.14;100.00;70583.66;5035623;28;20438;-77
2022/11/20 11:06:29;;;;;;;6.23;5.63;;;;;;;-145.14;100.00;70583.66;5041938;28;20430;-77
2022/11/20 11:08:59;;;;;;;5.23;4.73;;;;;;;-145.14;100.00;70583.66;5041344;28;20470;-77
2022/11/20 11:11:31;;;;;;;5.03;4.33;;;;;;;-145.14;100.00;70583.66;5035796;28;20949;-76
2022/11/20 11:14:10;;;;;;;5.70;4.67;;;;;;;-145.14;100.00;70583.66;5024182;28;20581;-76
2022/11/20 11:16:52;;;;;;;5.70;4.87;;;;;;;-145.14;100.00;70583.66;5041098;28;20425;-76
2022/11/20 11:19:17;;;;;;;7.37;4.93;;;;;;;-145.14;100.00;70583.66;5040081;28;20462;-77
2022/11/20 11:21:49;;;;;;;5.70;5.10;;;;;;;-145.14;100.00;70583.66;5041775;28;20950;-76
2022/11/20 11:24:26;;;;;;;5.00;4.30;;;;;;;-145.14;100.00;70583.66;5042097;28;20196;-77